sensor_id;sensor_type;location;lat;lon;timestamp;temperature;humidity
67868;SHT31;54672;46.096;14.470;2024-03-23T00:53:39;8.42;90.23
67868;SHT31;54672;46.096;14.470;2024-03-23T00:56:04;8.46;90.07
67868;SHT31;54672;46.096;14.470;2024-03-23T00:58:30;8.41;90.85
67868;SHT31;54672;46.096;14.470;2024-03-23T01:00:55;8.39;90.67
67868;SHT31;54672;46.096;14.470;2024-03-23T01:03:21;8.39;91.23
67868;SHT31;54672;46.096;14.470;2024-03-23T01:05:46;8.36;91.91
67868;SHT31;54672;46.096;14.470;2024-03-23T01:08:14;8.38;91.90
67868;SHT31;54672;46.096;14.470;2024-03-23T01:10:39;8.41;91.90
67868;SHT31;54672;46.096;14.470;2024-03-23T01:13:06;8.39;91.90
67868;SHT31;54672;46.096;14.470;2024-03-23T01:15:32;8.31;92.32
67868;SHT31;54672;46.096;14.470;2024-03-23T01:17:57;8.26;92.53
67868;SHT31;54672;46.096;14.470;2024-03-23T01:20:23;8.21;92.44
67868;SHT31;54672;46.096;14.470;2024-03-23T01:22:48;8.16;92.85
67868;SHT31;54672;46.096;14.470;2024-03-23T01:25:13;8.09;93.11
67868;SHT31;54672;46.096;14.470;2024-03-23T01:27:39;8.05;93.01
67868;SHT31;54672;46.096;14.470;2024-03-23T01:30:06;7.99;93.02
67868;SHT31;54672;46.096;14.470;2024-03-23T01:32:32;8.04;93.21
67868;SHT31;54672;46.096;14.470;2024-03-23T01:34:58;8.02;93.04
67868;SHT31;54672;46.096;14.470;2024-03-23T01:37:23;7.91;93.21
67868;SHT31;54672;46.096;14.470;2024-03-23T01:39:49;7.80;93.58
67868;SHT31;54672;46.096;14.470;2024-03-23T01:42:14;7.76;93.37
67868;SHT31;54672;46.096;14.470;2024-03-23T01:44:40;7.76;93.46
67868;SHT31;54672;46.096;14.470;2024-03-23T01:47:06;7.67;93.51
67868;SHT31;54672;46.096;14.470;2024-03-23T01:49:32;7.67;93.61
67868;SHT31;54672;46.096;14.470;2024-03-23T01:51:59;7.66;93.90
67868;SHT31;54672;46.096;14.470;2024-03-23T01:54:25;7.70;94.05
67868;SHT31;54672;46.096;14.470;2024-03-23T01:56:50;7.62;94.76
67868;SHT31;54672;46.096;14.470;2024-03-23T01:59:16;7.49;95.06
67868;SHT31;54672;46.096;14.470;2024-03-23T02:01:41;7.39;95.37
67868;SHT31;54672;46.096;14.470;2024-03-23T02:04:07;7.36;95.68
67868;SHT31;54672;46.096;14.470;2024-03-23T02:06:34;7.32;95.88
67868;SHT31;54672;46.096;14.470;2024-03-23T02:09:00;7.26;96.14
67868;SHT31;54672;46.096;14.470;2024-03-23T02:11:25;7.20;96.37
67868;SHT31;54672;46.096;14.470;2024-03-23T02:13:51;7.15;96.24
67868;SHT31;54672;46.096;14.470;2024-03-23T02:16:16;7.09;96.64
67868;SHT31;54672;46.096;14.470;2024-03-23T02:18:42;7.11;96.49
67868;SHT31;54672;46.096;14.470;2024-03-23T02:21:07;7.01;96.89
67868;SHT31;54672;46.096;14.470;2024-03-23T02:23:32;6.91;97.05
67868;SHT31;54672;46.096;14.470;2024-03-23T02:25:58;6.91;96.76
67868;SHT31;54672;46.096;14.470;2024-03-23T02:28:23;6.89;96.89
67868;SHT31;54672;46.096;14.470;2024-03-23T02:30:49;6.77;96.89
67868;SHT31;54672;46.096;14.470;2024-03-23T02:33:15;6.78;96.76
67868;SHT31;54672;46.096;14.470;2024-03-23T02:35:41;6.71;96.75
67868;SHT31;54672;46.096;14.470;2024-03-23T02:38:07;6.73;96.92
67868;SHT31;54672;46.096;14.470;2024-03-23T02:40:32;6.73;96.94
67868;SHT31;54672;46.096;14.470;2024-03-23T02:42:58;6.68;96.94
67868;SHT31;54672;46.096;14.470;2024-03-23T02:45:23;6.64;96.84
67868;SHT31;54672;46.096;14.470;2024-03-23T02:47:49;6.63;96.87
67868;SHT31;54672;46.096;14.470;2024-03-23T02:50:21;6.55;96.83
67868;SHT31;54672;46.096;14.470;2024-03-23T02:52:47;6.63;97.06
67868;SHT31;54672;46.096;14.470;2024-03-23T02:55:13;6.61;96.88
67868;SHT31;54672;46.096;14.470;2024-03-23T02:57:39;6.63;97.19
67868;SHT31;54672;46.096;14.470;2024-03-23T03:00:05;6.63;97.27
67868;SHT31;54672;46.096;14.470;2024-03-23T03:02:33;6.70;97.16
67868;SHT31;54672;46.096;14.470;2024-03-23T03:04:58;6.61;97.14
67868;SHT31;54672;46.096;14.470;2024-03-23T03:07:24;6.58;97.36
67868;SHT31;54672;46.096;14.470;2024-03-23T03:09:49;6.54;97.27
67868;SHT31;54672;46.096;14.470;2024-03-23T03:12:15;6.53;97.40
67868;SHT31;54672;46.096;14.470;2024-03-23T03:14:40;6.45;97.87
67868;SHT31;54672;46.096;14.470;2024-03-23T03:17:06;6.38;98.07
67868;SHT31;54672;46.096;14.470;2024-03-23T03:19:32;6.38;98.23
67868;SHT31;54672;46.096;14.470;2024-03-23T03:21:57;6.29;97.92
67868;SHT31;54672;46.096;14.470;2024-03-23T03:24:23;6.24;98.03
67868;SHT31;54672;46.096;14.470;2024-03-23T03:26:48;6.24;98.01
67868;SHT31;54672;46.096;14.470;2024-03-23T03:29:15;6.20;97.97
67868;SHT31;54672;46.096;14.470;2024-03-23T03:31:40;6.16;98.18
67868;SHT31;54672;46.096;14.470;2024-03-23T03:34:06;6.13;98.02
67868;SHT31;54672;46.096;14.470;2024-03-23T03:36:31;6.10;98.05
67868;SHT31;54672;46.096;14.470;2024-03-23T03:38:57;6.09;97.98
67868;SHT31;54672;46.096;14.470;2024-03-23T03:41:22;6.09;98.07
67868;SHT31;54672;46.096;14.470;2024-03-23T03:43:48;6.09;98.26
67868;SHT31;54672;46.096;14.470;2024-03-23T03:46:13;6.17;98.40
67868;SHT31;54672;46.096;14.470;2024-03-23T03:48:39;6.22;98.11
67868;SHT31;54672;46.096;14.470;2024-03-23T03:51:04;6.36;98.22
67868;SHT31;54672;46.096;14.470;2024-03-23T03:53:30;6.24;98.37
67868;SHT31;54672;46.096;14.470;2024-03-23T03:55:56;6.22;98.57
67868;SHT31;54672;46.096;14.470;2024-03-23T03:58:22;6.23;98.56
67868;SHT31;54672;46.096;14.470;2024-03-23T04:00:47;6.13;98.82
67868;SHT31;54672;46.096;14.470;2024-03-23T04:03:14;6.09;98.97
67868;SHT31;54672;46.096;14.470;2024-03-23T04:05:39;6.03;98.95
67868;SHT31;54672;46.096;14.470;2024-03-23T04:08:07;6.03;98.96
67868;SHT31;54672;46.096;14.470;2024-03-23T04:10:32;5.95;99.15
67868;SHT31;54672;46.096;14.470;2024-03-23T04:12:58;5.91;99.42
67868;SHT31;54672;46.096;14.470;2024-03-23T04:15:23;5.82;99.26
67868;SHT31;54672;46.096;14.470;2024-03-23T04:17:48;5.81;99.22
67868;SHT31;54672;46.096;14.470;2024-03-23T04:20:14;5.81;99.44
67868;SHT31;54672;46.096;14.470;2024-03-23T04:22:42;5.76;99.71
67868;SHT31;54672;46.096;14.470;2024-03-23T04:25:08;5.84;99.55
67868;SHT31;54672;46.096;14.470;2024-03-23T04:27:39;5.82;99.56
67868;SHT31;54672;46.096;14.470;2024-03-23T04:30:06;5.76;99.78
67868;SHT31;54672;46.096;14.470;2024-03-23T04:32:37;5.76;99.93
67868;SHT31;54672;46.096;14.470;2024-03-23T04:35:02;5.69;99.89
67868;SHT31;54672;46.096;14.470;2024-03-23T04:37:39;5.61;99.99
67868;SHT31;54672;46.096;14.470;2024-03-23T04:40:08;5.62;99.99
67868;SHT31;54672;46.096;14.470;2024-03-23T04:42:34;5.52;99.99
67868;SHT31;54672;46.096;14.470;2024-03-23T04:45:00;5.47;99.99
67868;SHT31;54672;46.096;14.470;2024-03-23T04:47:26;5.43;99.99
67868;SHT31;54672;46.096;14.470;2024-03-23T04:49:51;5.43;99.99
67868;SHT31;54672;46.096;14.470;2024-03-23T04:52:17;5.40;99.99
67868;SHT31;54672;46.096;14.470;2024-03-23T04:54:43;5.37;99.99
67868;SHT31;54672;46.096;14.470;2024-03-23T04:57:09;5.35;99.99
67868;SHT31;54672;46.096;14.470;2024-03-23T04:59:35;5.35;99.99
67868;SHT31;54672;46.096;14.470;2024-03-23T05:02:00;5.38;99.99
67868;SHT31;54672;46.096;14.470;2024-03-23T05:04:26;5.43;99.99
67868;SHT31;54672;46.096;14.470;2024-03-23T05:06:51;5.37;99.99
67868;SHT31;54672;46.096;14.470;2024-03-23T05:09:17;5.44;99.99
67868;SHT31;54672;46.096;14.470;2024-03-23T05:11:42;5.54;99.99
67868;SHT31;54672;46.096;14.470;2024-03-23T05:14:08;5.72;99.99
67868;SHT31;54672;46.096;14.470;2024-03-23T05:16:34;5.71;99.98
67868;SHT31;54672;46.096;14.470;2024-03-23T05:18:59;5.69;99.78
67868;SHT31;54672;46.096;14.470;2024-03-23T05:21:26;5.82;99.61
67868;SHT31;54672;46.096;14.470;2024-03-23T05:23:53;6.05;99.49
67868;SHT31;54672;46.096;14.470;2024-03-23T05:26:18;6.07;99.19
67868;SHT31;54672;46.096;14.470;2024-03-23T05:28:44;6.13;98.78
67868;SHT31;54672;46.096;14.470;2024-03-23T05:31:09;6.27;98.24
67868;SHT31;54672;46.096;14.470;2024-03-23T05:33:38;7.18;96.81
67868;SHT31;54672;46.096;14.470;2024-03-23T05:36:04;7.95;96.29
67868;SHT31;54672;46.096;14.470;2024-03-23T05:38:29;8.05;93.56
67868;SHT31;54672;46.096;14.470;2024-03-23T05:40:58;8.22;91.69
67868;SHT31;54672;46.096;14.470;2024-03-23T05:43:24;7.85;91.45
67868;SHT31;54672;46.096;14.470;2024-03-23T05:45:56;7.54;92.18
67868;SHT31;54672;46.096;14.470;2024-03-23T05:48:22;7.40;92.43
67868;SHT31;54672;46.096;14.470;2024-03-23T05:50:49;7.23;92.96
67868;SHT31;54672;46.096;14.470;2024-03-23T05:53:16;6.67;95.21
67868;SHT31;54672;46.096;14.470;2024-03-23T05:55:42;6.44;96.17
67868;SHT31;54672;46.096;14.470;2024-03-23T05:58:07;6.32;96.74
67868;SHT31;54672;46.096;14.470;2024-03-23T06:00:33;6.53;96.26
67868;SHT31;54672;46.096;14.470;2024-03-23T06:02:58;6.70;95.88
67868;SHT31;54672;46.096;14.470;2024-03-23T06:05:24;8.42;93.79
67868;SHT31;54672;46.096;14.470;2024-03-23T06:07:49;9.95;87.41
67868;SHT31;54672;46.096;14.470;2024-03-23T06:10:15;9.99;83.62
67868;SHT31;54672;46.096;14.470;2024-03-23T06:12:41;8.86;87.03
67868;SHT31;54672;46.096;14.470;2024-03-23T06:15:07;8.99;87.83
67868;SHT31;54672;46.096;14.470;2024-03-23T06:17:36;9.78;85.08
67868;SHT31;54672;46.096;14.470;2024-03-23T06:20:02;11.94;80.06
67868;SHT31;54672;46.096;14.470;2024-03-23T06:22:27;13.41;74.87
67868;SHT31;54672;46.096;14.470;2024-03-23T06:24:53;14.75;71.38
67868;SHT31;54672;46.096;14.470;2024-03-23T06:27:18;16.14;66.92
67868;SHT31;54672;46.096;14.470;2024-03-23T06:29:44;16.87;63.63
67868;SHT31;54672;46.096;14.470;2024-03-23T06:32:09;16.62;64.74
67868;SHT31;54672;46.096;14.470;2024-03-23T06:34:35;17.02;62.30
67868;SHT31;54672;46.096;14.470;2024-03-23T06:37:00;17.22;62.62
67868;SHT31;54672;46.096;14.470;2024-03-23T06:39:26;17.60;60.53
67868;SHT31;54672;46.096;14.470;2024-03-23T06:41:53;17.53;61.44
67868;SHT31;54672;46.096;14.470;2024-03-23T06:44:19;15.46;64.25
67868;SHT31;54672;46.096;14.470;2024-03-23T06:46:45;12.57;74.78
67868;SHT31;54672;46.096;14.470;2024-03-23T06:49:11;13.08;72.93
67868;SHT31;54672;46.096;14.470;2024-03-23T06:51:36;13.82;71.64
67868;SHT31;54672;46.096;14.470;2024-03-23T06:54:06;14.68;69.94
67868;SHT31;54672;46.096;14.470;2024-03-23T06:56:31;13.69;72.97
67868;SHT31;54672;46.096;14.470;2024-03-23T06:58:57;14.33;70.54
67868;SHT31;54672;46.096;14.470;2024-03-23T07:01:23;14.34;71.30
67868;SHT31;54672;46.096;14.470;2024-03-23T07:03:48;13.74;73.32
67868;SHT31;54672;46.096;14.470;2024-03-23T07:06:14;13.69;74.09
67868;SHT31;54672;46.096;14.470;2024-03-23T07:08:40;15.45;69.04
67868;SHT31;54672;46.096;14.470;2024-03-23T07:11:06;15.28;69.02
67868;SHT31;54672;46.096;14.470;2024-03-23T07:13:32;14.56;70.01
67868;SHT31;54672;46.096;14.470;2024-03-23T07:15:58;14.56;71.63
67868;SHT31;54672;46.096;14.470;2024-03-23T07:18:25;16.99;65.59
67868;SHT31;54672;46.096;14.470;2024-03-23T07:20:57;18.25;61.23
67868;SHT31;54672;46.096;14.470;2024-03-23T07:23:23;18.94;60.14
67868;SHT31;54672;46.096;14.470;2024-03-23T07:26:02;19.55;58.85
67868;SHT31;54672;46.096;14.470;2024-03-23T07:28:30;19.97;57.19
67868;SHT31;54672;46.096;14.470;2024-03-23T07:31:05;20.40;56.44
67868;SHT31;54672;46.096;14.470;2024-03-23T07:33:32;20.44;55.20
67868;SHT31;54672;46.096;14.470;2024-03-23T07:35:58;19.28;58.68
67868;SHT31;54672;46.096;14.470;2024-03-23T07:38:27;17.55;63.64
67868;SHT31;54672;46.096;14.470;2024-03-23T07:40:52;17.19;64.06
67868;SHT31;54672;46.096;14.470;2024-03-23T07:43:22;16.26;67.55
67868;SHT31;54672;46.096;14.470;2024-03-23T07:45:53;15.98;68.12
67868;SHT31;54672;46.096;14.470;2024-03-23T07:48:21;16.08;67.98
67868;SHT31;54672;46.096;14.470;2024-03-23T07:53:34;16.08;69.25
67868;SHT31;54672;46.096;14.470;2024-03-23T07:56:09;15.63;70.81
67868;SHT31;54672;46.096;14.470;2024-03-23T07:58:36;14.37;74.48
67868;SHT31;54672;46.096;14.470;2024-03-23T08:01:11;13.43;78.57
67868;SHT31;54672;46.096;14.470;2024-03-23T08:03:39;13.68;78.55
67868;SHT31;54672;46.096;14.470;2024-03-23T08:06:18;13.58;79.44
67868;SHT31;54672;46.096;14.470;2024-03-23T08:08:46;13.83;79.40
67868;SHT31;54672;46.096;14.470;2024-03-23T08:11:12;13.47;80.42
67868;SHT31;54672;46.096;14.470;2024-03-23T08:13:42;13.35;81.17
67868;SHT31;54672;46.096;14.470;2024-03-23T08:16:08;13.54;79.94
67868;SHT31;54672;46.096;14.470;2024-03-23T08:18:37;13.38;79.68
67868;SHT31;54672;46.096;14.470;2024-03-23T08:21:04;13.06;79.92
67868;SHT31;54672;46.096;14.470;2024-03-23T08:23:32;13.10;80.41
67868;SHT31;54672;46.096;14.470;2024-03-23T08:26:10;13.11;79.38
67868;SHT31;54672;46.096;14.470;2024-03-23T08:28:36;13.31;78.98
67868;SHT31;54672;46.096;14.470;2024-03-23T08:31:08;13.03;79.93
67868;SHT31;54672;46.096;14.470;2024-03-23T08:33:34;13.30;78.26
67868;SHT31;54672;46.096;14.470;2024-03-23T08:36:04;13.95;76.97
67868;SHT31;54672;46.096;14.470;2024-03-23T08:38:30;13.81;76.64
67868;SHT31;54672;46.096;14.470;2024-03-23T08:41:09;13.53;77.86
67868;SHT31;54672;46.096;14.470;2024-03-23T08:43:40;13.92;74.96
67868;SHT31;54672;46.096;14.470;2024-03-23T08:46:13;13.95;74.98
67868;SHT31;54672;46.096;14.470;2024-03-23T08:48:39;14.10;75.23
67868;SHT31;54672;46.096;14.470;2024-03-23T08:51:07;14.33;75.00
67868;SHT31;54672;46.096;14.470;2024-03-23T08:53:34;14.43;74.59
67868;SHT31;54672;46.096;14.470;2024-03-23T08:56:00;14.95;70.47
67868;SHT31;54672;46.096;14.470;2024-03-23T08:58:27;15.02;69.88
67868;SHT31;54672;46.096;14.470;2024-03-23T09:00:54;15.25;69.33
67868;SHT31;54672;46.096;14.470;2024-03-23T09:03:26;15.94;68.76
67868;SHT31;54672;46.096;14.470;2024-03-23T09:05:52;15.93;67.90
67868;SHT31;54672;46.096;14.470;2024-03-23T09:08:18;15.53;67.24
67868;SHT31;54672;46.096;14.470;2024-03-23T09:10:44;16.10;64.17
67868;SHT31;54672;46.096;14.470;2024-03-23T09:13:10;16.59;63.95
67868;SHT31;54672;46.096;14.470;2024-03-23T09:15:45;16.76;63.94
67868;SHT31;54672;46.096;14.470;2024-03-23T09:18:10;16.99;61.87
67868;SHT31;54672;46.096;14.470;2024-03-23T09:20:36;17.02;60.13
67868;SHT31;54672;46.096;14.470;2024-03-23T09:23:01;17.47;60.30
67868;SHT31;54672;46.096;14.470;2024-03-23T09:25:27;17.50;58.50
67868;SHT31;54672;46.096;14.470;2024-03-23T09:27:52;17.88;57.88
67868;SHT31;54672;46.096;14.470;2024-03-23T09:30:18;17.86;56.12
67868;SHT31;54672;46.096;14.470;2024-03-23T09:32:45;17.79;55.84
67868;SHT31;54672;46.096;14.470;2024-03-23T09:35:11;17.64;55.82
67868;SHT31;54672;46.096;14.470;2024-03-23T09:37:37;16.90;56.91
67868;SHT31;54672;46.096;14.470;2024-03-23T09:40:09;17.47;56.79
67868;SHT31;54672;46.096;14.470;2024-03-23T09:42:35;17.50;56.34
67868;SHT31;54672;46.096;14.470;2024-03-23T09:45:00;17.55;56.29
67868;SHT31;54672;46.096;14.470;2024-03-23T09:47:26;17.45;55.53
67868;SHT31;54672;46.096;14.470;2024-03-23T09:49:52;17.75;55.09
67868;SHT31;54672;46.096;14.470;2024-03-23T09:52:18;17.84;55.15
67868;SHT31;54672;46.096;14.470;2024-03-23T09:54:44;17.65;54.86
67868;SHT31;54672;46.096;14.470;2024-03-23T09:57:10;18.39;54.15
67868;SHT31;54672;46.096;14.470;2024-03-23T09:59:35;18.49;53.96
67868;SHT31;54672;46.096;14.470;2024-03-23T10:02:01;18.61;54.11
67868;SHT31;54672;46.096;14.470;2024-03-23T10:04:41;18.64;52.95
67868;SHT31;54672;46.096;14.470;2024-03-23T10:07:14;19.15;52.35
67868;SHT31;54672;46.096;14.470;2024-03-23T10:09:40;18.98;51.76
67868;SHT31;54672;46.096;14.470;2024-03-23T10:12:10;18.49;52.41
67868;SHT31;54672;46.096;14.470;2024-03-23T10:14:35;18.97;52.49
67868;SHT31;54672;46.096;14.470;2024-03-23T10:17:22;17.91;52.42
67868;SHT31;54672;46.096;14.470;2024-03-23T10:19:52;18.23;52.39
67868;SHT31;54672;46.096;14.470;2024-03-23T10:22:22;18.57;53.09
67868;SHT31;54672;46.096;14.470;2024-03-23T10:24:48;18.46;51.82
67868;SHT31;54672;46.096;14.470;2024-03-23T10:27:18;18.95;52.24
67868;SHT31;54672;46.096;14.470;2024-03-23T10:29:45;18.78;51.55
67868;SHT31;54672;46.096;14.470;2024-03-23T10:32:12;18.67;51.80
67868;SHT31;54672;46.096;14.470;2024-03-23T10:34:38;18.73;50.95
67868;SHT31;54672;46.096;14.470;2024-03-23T10:37:05;18.95;50.86
67868;SHT31;54672;46.096;14.470;2024-03-23T10:39:41;19.24;50.91
67868;SHT31;54672;46.096;14.470;2024-03-23T10:42:08;19.59;49.76
67868;SHT31;54672;46.096;14.470;2024-03-23T10:44:34;19.51;49.89
67868;SHT31;54672;46.096;14.470;2024-03-23T10:47:04;19.80;49.95
67868;SHT31;54672;46.096;14.470;2024-03-23T10:49:33;19.76;47.21
67868;SHT31;54672;46.096;14.470;2024-03-23T10:52:01;19.92;49.07
67868;SHT31;54672;46.096;14.470;2024-03-23T10:54:27;19.73;48.01
67868;SHT31;54672;46.096;14.470;2024-03-23T10:57:03;19.22;48.11
67868;SHT31;54672;46.096;14.470;2024-03-23T10:59:31;18.84;48.65
67868;SHT31;54672;46.096;14.470;2024-03-23T11:01:58;19.18;49.47
67868;SHT31;54672;46.096;14.470;2024-03-23T11:04:32;19.58;48.31
67868;SHT31;54672;46.096;14.470;2024-03-23T11:06:57;19.36;48.61
67868;SHT31;54672;46.096;14.470;2024-03-23T11:09:42;19.29;48.03
67868;SHT31;54672;46.096;14.470;2024-03-23T11:15:10;20.09;48.35
67868;SHT31;54672;46.096;14.470;2024-03-23T11:17:34;20.45;48.32
67868;SHT31;54672;46.096;14.470;2024-03-23T11:20:03;20.55;47.85
67868;SHT31;54672;46.096;14.470;2024-03-23T11:22:46;20.25;48.54
67868;SHT31;54672;46.096;14.470;2024-03-23T11:25:20;20.27;48.41
67868;SHT31;54672;46.096;14.470;2024-03-23T11:27:47;19.77;49.31
67868;SHT31;54672;46.096;14.470;2024-03-23T11:30:27;19.59;50.59
67868;SHT31;54672;46.096;14.470;2024-03-23T11:32:55;19.63;49.59
67868;SHT31;54672;46.096;14.470;2024-03-23T11:38:11;19.72;48.23
67868;SHT31;54672;46.096;14.470;2024-03-23T11:40:41;19.51;48.63
67868;SHT31;54672;46.096;14.470;2024-03-23T11:43:12;19.35;49.06
67868;SHT31;54672;46.096;14.470;2024-03-23T11:45:43;19.43;49.26
67868;SHT31;54672;46.096;14.470;2024-03-23T11:50:43;19.01;51.05
67868;SHT31;54672;46.096;14.470;2024-03-23T11:53:15;19.00;50.36
67868;SHT31;54672;46.096;14.470;2024-03-23T11:55:42;19.22;49.89
67868;SHT31;54672;46.096;14.470;2024-03-23T11:58:07;19.42;50.11
67868;SHT31;54672;46.096;14.470;2024-03-23T12:00:34;19.45;49.87
67868;SHT31;54672;46.096;14.470;2024-03-23T12:03:01;19.72;47.85
67868;SHT31;54672;46.096;14.470;2024-03-23T12:05:26;19.67;49.61
67868;SHT31;54672;46.096;14.470;2024-03-23T12:07:52;19.96;49.44
67868;SHT31;54672;46.096;14.470;2024-03-23T12:10:19;19.65;48.04
67868;SHT31;54672;46.096;14.470;2024-03-23T12:12:44;19.90;48.13
67868;SHT31;54672;46.096;14.470;2024-03-23T12:15:10;20.00;48.68
67868;SHT31;54672;46.096;14.470;2024-03-23T12:17:38;19.87;48.46
67868;SHT31;54672;46.096;14.470;2024-03-23T12:20:04;19.74;48.44
67868;SHT31;54672;46.096;14.470;2024-03-23T12:22:30;20.09;48.76
67868;SHT31;54672;46.096;14.470;2024-03-23T12:24:56;20.38;48.37
67868;SHT31;54672;46.096;14.470;2024-03-23T12:27:21;20.00;48.04
67868;SHT31;54672;46.096;14.470;2024-03-23T12:29:47;19.61;48.81
67868;SHT31;54672;46.096;14.470;2024-03-23T12:32:14;19.52;48.79
67868;SHT31;54672;46.096;14.470;2024-03-23T12:34:40;19.72;48.49
67868;SHT31;54672;46.096;14.470;2024-03-23T12:37:06;19.55;48.48
67868;SHT31;54672;46.096;14.470;2024-03-23T12:39:32;19.56;49.34
67868;SHT31;54672;46.096;14.470;2024-03-23T12:41:57;19.51;48.67
67868;SHT31;54672;46.096;14.470;2024-03-23T12:44:23;19.39;48.91
67868;SHT31;54672;46.096;14.470;2024-03-23T12:46:48;19.15;49.46
67868;SHT31;54672;46.096;14.470;2024-03-23T12:49:14;18.95;49.79
67868;SHT31;54672;46.096;14.470;2024-03-23T12:51:48;18.93;50.42
67868;SHT31;54672;46.096;14.470;2024-03-23T12:54:16;18.67;50.23
67868;SHT31;54672;46.096;14.470;2024-03-23T12:56:42;18.30;51.67
67868;SHT31;54672;46.096;14.470;2024-03-23T12:59:07;18.56;51.90
67868;SHT31;54672;46.096;14.470;2024-03-23T13:01:33;18.42;52.83
67868;SHT31;54672;46.096;14.470;2024-03-23T13:03:58;18.50;52.13
67868;SHT31;54672;46.096;14.470;2024-03-23T13:06:24;18.70;51.98
67868;SHT31;54672;46.096;14.470;2024-03-23T13:08:50;18.88;51.74
67868;SHT31;54672;46.096;14.470;2024-03-23T13:11:15;18.85;51.83
67868;SHT31;54672;46.096;14.470;2024-03-23T13:13:41;18.80;52.44
67868;SHT31;54672;46.096;14.470;2024-03-23T13:16:07;18.59;52.70
67868;SHT31;54672;46.096;14.470;2024-03-23T13:18:33;18.53;52.52
67868;SHT31;54672;46.096;14.470;2024-03-23T13:20:58;18.50;52.43
67868;SHT31;54672;46.096;14.470;2024-03-23T13:23:24;18.37;53.73
67868;SHT31;54672;46.096;14.470;2024-03-23T13:28:18;18.36;53.95
67868;SHT31;54672;46.096;14.470;2024-03-23T13:30:53;18.37;54.72
67868;SHT31;54672;46.096;14.470;2024-03-23T13:33:18;18.17;54.34
67868;SHT31;54672;46.096;14.470;2024-03-23T13:35:54;18.15;55.48
67868;SHT31;54672;46.096;14.470;2024-03-23T13:38:22;17.91;56.07
67868;SHT31;54672;46.096;14.470;2024-03-23T13:40:56;17.74;56.65
67868;SHT31;54672;46.096;14.470;2024-03-23T13:43:22;17.71;59.30
67868;SHT31;54672;46.096;14.470;2024-03-23T13:45:49;17.51;62.72
67868;SHT31;54672;46.096;14.470;2024-03-23T13:48:17;17.22;65.14
67868;SHT31;54672;46.096;14.470;2024-03-23T13:50:43;17.06;66.21
67868;SHT31;54672;46.096;14.470;2024-03-23T13:53:09;16.96;66.82
67868;SHT31;54672;46.096;14.470;2024-03-23T13:55:35;17.04;66.80
67868;SHT31;54672;46.096;14.470;2024-03-23T13:58:01;17.12;66.82
67868;SHT31;54672;46.096;14.470;2024-03-23T14:00:27;17.30;66.57
67868;SHT31;54672;46.096;14.470;2024-03-23T14:02:52;17.26;66.64
67868;SHT31;54672;46.096;14.470;2024-03-23T14:05:17;17.31;66.60
67868;SHT31;54672;46.096;14.470;2024-03-23T14:07:43;17.16;66.85
67868;SHT31;54672;46.096;14.470;2024-03-23T14:10:09;17.19;67.16
67868;SHT31;54672;46.096;14.470;2024-03-23T14:12:38;17.09;67.19
67868;SHT31;54672;46.096;14.470;2024-03-23T14:15:07;16.99;67.54
67868;SHT31;54672;46.096;14.470;2024-03-23T14:17:32;16.96;67.32
67868;SHT31;54672;46.096;14.470;2024-03-23T14:19:58;16.89;67.76
67868;SHT31;54672;46.096;14.470;2024-03-23T14:22:29;17.06;67.22
67868;SHT31;54672;46.096;14.470;2024-03-23T14:24:55;16.94;67.22
67868;SHT31;54672;46.096;14.470;2024-03-23T14:27:21;16.90;67.24
67868;SHT31;54672;46.096;14.470;2024-03-23T14:29:48;16.77;67.78
67868;SHT31;54672;46.096;14.470;2024-03-23T14:32:14;16.65;67.91
67868;SHT31;54672;46.096;14.470;2024-03-23T14:34:40;16.56;68.29
67868;SHT31;54672;46.096;14.470;2024-03-23T14:37:06;16.62;67.88
67868;SHT31;54672;46.096;14.470;2024-03-23T14:39:32;16.73;67.81
67868;SHT31;54672;46.096;14.470;2024-03-23T14:42:02;16.65;67.97
67868;SHT31;54672;46.096;14.470;2024-03-23T14:44:28;16.59;67.83
67868;SHT31;54672;46.096;14.470;2024-03-23T14:46:54;16.47;68.19
67868;SHT31;54672;46.096;14.470;2024-03-23T14:49:20;16.41;68.36
67868;SHT31;54672;46.096;14.470;2024-03-23T14:51:46;16.36;68.52
67868;SHT31;54672;46.096;14.470;2024-03-23T14:54:12;16.28;68.71
67868;SHT31;54672;46.096;14.470;2024-03-23T14:56:38;16.26;68.80
67868;SHT31;54672;46.096;14.470;2024-03-23T14:59:03;16.28;68.60
67868;SHT31;54672;46.096;14.470;2024-03-23T15:01:29;16.29;68.56
67868;SHT31;54672;46.096;14.470;2024-03-23T15:03:54;16.32;68.79
67868;SHT31;54672;46.096;14.470;2024-03-23T15:06:20;16.31;68.89
67868;SHT31;54672;46.096;14.470;2024-03-23T15:08:45;16.26;68.82
67868;SHT31;54672;46.096;14.470;2024-03-23T15:11:11;16.29;68.83
67868;SHT31;54672;46.096;14.470;2024-03-23T15:13:37;16.26;69.17
67868;SHT31;54672;46.096;14.470;2024-03-23T15:16:04;16.25;69.13
67868;SHT31;54672;46.096;14.470;2024-03-23T15:18:32;16.25;69.23
67868;SHT31;54672;46.096;14.470;2024-03-23T15:20:59;16.22;69.41
67868;SHT31;54672;46.096;14.470;2024-03-23T15:23:29;16.21;69.27
67868;SHT31;54672;46.096;14.470;2024-03-23T15:25:59;16.22;69.52
67868;SHT31;54672;46.096;14.470;2024-03-23T15:28:25;16.17;69.49
67868;SHT31;54672;46.096;14.470;2024-03-23T15:31:06;16.14;69.76
67868;SHT31;54672;46.096;14.470;2024-03-23T15:33:32;16.22;69.63
67868;SHT31;54672;46.096;14.470;2024-03-23T15:36:04;16.20;69.81
67868;SHT31;54672;46.096;14.470;2024-03-23T15:38:31;16.29;70.19
67868;SHT31;54672;46.096;14.470;2024-03-23T15:40:57;16.34;69.72
67868;SHT31;54672;46.096;14.470;2024-03-23T15:43:23;16.38;69.17
67868;SHT31;54672;46.096;14.470;2024-03-23T15:46:14;16.52;68.88
67868;SHT31;54672;46.096;14.470;2024-03-23T15:48:41;16.59;68.35
67868;SHT31;54672;46.096;14.470;2024-03-23T15:51:11;16.72;63.37
67868;SHT31;54672;46.096;14.470;2024-03-23T15:53:36;16.63;61.07
67868;SHT31;54672;46.096;14.470;2024-03-23T15:56:03;16.73;61.78
67868;SHT31;54672;46.096;14.470;2024-03-23T15:58:30;16.80;60.40
67868;SHT31;54672;46.096;14.470;2024-03-23T16:00:57;16.77;58.37
67868;SHT31;54672;46.096;14.470;2024-03-23T16:03:23;16.69;58.12
67868;SHT31;54672;46.096;14.470;2024-03-23T16:06:04;16.62;58.08
67868;SHT31;54672;46.096;14.470;2024-03-23T16:08:30;16.56;57.97
67868;SHT31;54672;46.096;14.470;2024-03-23T16:11:03;16.56;58.70
67868;SHT31;54672;46.096;14.470;2024-03-23T16:13:29;16.59;58.29
67868;SHT31;54672;46.096;14.470;2024-03-23T16:15:59;16.69;57.39
67868;SHT31;54672;46.096;14.470;2024-03-23T16:18:25;16.54;58.58
67868;SHT31;54672;46.096;14.470;2024-03-23T16:21:02;16.40;63.81
67868;SHT31;54672;46.096;14.470;2024-03-23T16:23:27;16.17;67.20
67868;SHT31;54672;46.096;14.470;2024-03-23T16:25:54;16.07;68.18
67868;SHT31;54672;46.096;14.470;2024-03-23T16:28:27;15.98;68.40